Time;durP1;ratioP1;P1;durP2;ratioP2;P2;SDS_P1;SDS_P2;PMS_P1;PMS_P2;Temp;Humidity;BMP_temperature;BMP_pressure;BME280_temperature;BME280_humidity;BME280_pressure;Samples;Min_cycle;Max_cycle;Signal;HPM_P1;HPM_P2
2021/01/30 00:00:24;;;;;;;10.73;7.60;;;;;;;-144.99;100.00;52568.34;5032948;28;20726;-73
2021/01/30 00:02:50;;;;;;;12.13;7.50;;;;;;;-144.99;100.00;52566.31;5040851;28;21065;-72
2021/01/30 00:05:17;;;;;;;10.73;7.07;;;;;;;-144.99;100.00;52574.47;5036784;28;20609;-72
2021/01/30 00:07:43;;;;;;;10.77;8.03;;;;;;;-144.99;100.00;52574.47;5034887;28;20647;-74
2021/01/30 00:10:10;;;;;;;10.63;7.00;;;;;;;-144.99;100.00;52568.34;5035836;28;20635;-73
2021/01/30 00:12:36;;;;;;;11.33;7.07;;;;;;;-144.99;100.00;52529.63;5029242;28;21061;-73
2021/01/30 00:15:04;;;;;;;10.47;7.20;;;;;;;-144.99;100.00;52588.75;5033935;28;20609;-74
2021/01/30 00:17:30;;;;;;;10.40;8.50;;;;;;;-144.99;100.00;52566.31;5030603;28;20702;-75
2021/01/30 00:19:57;;;;;;;12.27;7.80;;;;;;;-144.99;100.00;52607.09;5025005;28;20659;-75
2021/01/30 00:22:26;;;;;;;9.50;7.47;;;;;;;-144.99;100.00;52562.25;5035314;28;20667;-74
2021/01/30 00:24:52;;;;;;;10.50;6.70;;;;;;;-144.99;100.00;52572.44;5028618;28;20620;-75
2021/01/30 00:27:20;;;;;;;9.67;7.40;;;;;;;-144.99;100.00;52572.44;5033312;28;20640;-75
2021/01/30 00:29:47;;;;;;;8.57;6.47;;;;;;;-144.99;100.00;52574.47;5042085;28;20695;-75
2021/01/30 00:32:15;;;;;;;8.53;6.43;;;;;;;-144.99;100.00;52611.16;5034220;28;20656;-76
2021/01/30 00:34:47;;;;;;;9.33;6.50;;;;;;;-144.99;100.00;52545.94;5031276;28;21192;-72
2021/01/30 00:37:17;;;;;;;8.53;6.13;;;;;;;-144.99;100.00;52582.63;5031222;28;21003;-73
2021/01/30 00:39:44;;;;;;;8.67;6.73;;;;;;;-144.99;100.00;52615.25;5034030;28;20641;-73
2021/01/30 00:42:12;;;;;;;8.47;6.70;;;;;;;-144.99;100.00;52580.59;5030117;28;21245;-73
2021/01/30 00:44:38;;;;;;;10.40;7.53;;;;;;;-144.99;100.00;52590.78;5027043;28;20729;-72
2021/01/30 00:47:06;;;;;;;11.07;7.07;;;;;;;-144.99;100.00;52545.94;5028916;28;20642;-73
2021/01/30 00:49:33;;;;;;;7.97;6.57;;;;;;;-144.99;100.00;52554.09;5026051;28;20635;-73
2021/01/30 00:52:00;;;;;;;9.37;6.93;;;;;;;-144.99;100.00;52543.91;5040616;28;20670;-73
2021/01/30 00:54:26;;;;;;;9.80;6.80;;;;;;;-144.99;100.00;52558.16;5031461;28;20632;-73
2021/01/30 00:56:54;;;;;;;8.00;6.47;;;;;;;-144.99;100.00;52619.31;5029534;28;20627;-72
2021/01/30 00:59:21;;;;;;;10.00;7.27;;;;;;;-144.99;100.00;52554.09;5033143;28;20654;-73
2021/01/30 01:01:47;;;;;;;9.47;7.10;;;;;;;-144.99;100.00;52623.38;5039344;28;20709;-72
2021/01/30 01:04:13;;;;;;;9.53;7.77;;;;;;;-144.99;100.00;52582.63;5027259;28;20689;-73
2021/01/30 01:06:40;;;;;;;9.63;7.20;;;;;;;-144.99;100.00;52603.00;5030658;28;20688;-73
2021/01/30 01:09:08;;;;;;;10.47;8.13;;;;;;;-144.99;100.00;52594.84;5033617;28;20786;-75
2021/01/30 01:11:35;;;;;;;9.10;7.43;;;;;;;-144.99;100.00;52558.16;5036918;28;20669;-73
2021/01/30 01:14:02;;;;;;;8.63;6.83;;;;;;;-144.99;100.00;52570.38;5028009;28;20633;-73
2021/01/30 01:16:28;;;;;;;8.03;6.33;;;;;;;-144.99;100.00;52566.31;5026899;28;20640;-74
2021/01/30 01:18:54;;;;;;;7.63;6.10;;;;;;;-144.99;100.00;52554.09;5021664;28;20629;-72
2021/01/30 01:21:20;;;;;;;8.80;7.90;;;;;;;-144.99;100.00;52562.25;5032885;28;20651;-72
2021/01/30 01:23:47;;;;;;;11.67;8.10;;;;;;;-144.99;100.00;52545.94;5029832;28;21283;-72
2021/01/30 01:26:17;;;;;;;9.27;7.23;;;;;;;-144.99;100.00;52517.41;5025441;28;20631;-71
2021/01/30 01:28:43;;;;;;;10.47;8.53;;;;;;;-144.99;100.00;52590.78;5026902;28;20632;-71
2021/01/30 01:31:11;;;;;;;11.03;8.60;;;;;;;-144.99;100.00;52545.94;5034527;28;21281;-72
2021/01/30 01:33:38;;;;;;;10.37;8.07;;;;;;;-144.99;100.00;52586.69;5030904;28;20746;-72
2021/01/30 01:36:04;;;;;;;10.23;7.83;;;;;;;-144.99;100.00;52554.09;5028233;28;20637;-72
2021/01/30 01:38:31;;;;;;;12.10;9.13;;;;;;;-144.99;100.00;52566.31;5029146;28;20617;-72
2021/01/30 01:40:57;;;;;;;12.13;10.03;;;;;;;-144.99;100.00;52541.84;5033731;28;20746;-72
2021/01/30 01:43:26;;;;;;;12.10;9.53;;;;;;;-144.99;100.00;52533.69;5026485;28;20632;-72
2021/01/30 01:46:07;;;;;;;12.60;9.73;;;;;;;-144.99;100.00;52566.31;5024674;28;21204;-71
2021/01/30 01:48:35;;;;;;;10.47;9.00;;;;;;;-144.99;100.00;52576.50;5025366;28;20636;-71
2021/01/30 01:51:05;;;;;;;10.13;8.33;;;;;;;-144.99;100.00;52562.25;5030797;28;20717;-71
2021/01/30 01:53:33;;;;;;;10.93;9.40;;;;;;;-144.99;100.00;52582.63;5037433;28;20973;-71
2021/01/30 01:56:04;;;;;;;12.63;10.47;;;;;;;-144.99;100.00;52582.63;5028012;28;20724;-71
2021/01/30 01:58:33;;;;;;;11.37;9.50;;;;;;;-144.99;100.00;52586.69;5025352;28;20636;-71
2021/01/30 02:00:59;;;;;;;12.53;10.27;;;;;;;-144.99;100.00;52562.25;5029451;28;20664;-72
2021/01/30 02:03:27;;;;;;;12.80;11.03;;;;;;;-144.99;100.00;52558.16;5031506;28;21928;-71
2021/01/30 02:05:54;;;;;;;12.30;10.10;;;;;;;-144.99;100.00;52525.56;5027692;28;20723;-72
2021/01/30 02:08:23;;;;;;;14.27;10.53;;;;;;;-144.99;100.00;52566.31;5035553;28;20642;-72
2021/01/30 02:10:51;;;;;;;14.47;11.40;;;;;;;-144.99;100.00;52582.63;5031732;28;20647;-73
2021/01/30 02:13:20;;;;;;;11.57;9.33;;;;;;;-144.99;100.00;52594.84;5027876;28;20624;-73
2021/01/30 02:15:51;;;;;;;14.27;11.47;;;;;;;-144.99;100.00;52607.09;5026630;28;22240;-72
2021/01/30 02:18:30;;;;;;;12.07;10.63;;;;;;;-144.99;100.00;52603.00;5021902;28;20656;-72
2021/01/30 02:21:30;;;;;;;12.27;10.10;;;;;;;-144.99;100.00;52570.38;5028186;28;20676;-72
2021/01/30 02:24:52;;;;;;;14.23;11.07;;;;;;;-144.99;100.00;52543.91;5028812;28;20639;-72
2021/01/30 02:27:54;;;;;;;12.97;11.13;;;;;;;-144.99;100.00;52545.94;5026950;28;20639;-72
2021/01/30 02:30:37;;;;;;;16.23;10.37;;;;;;;-144.99;100.00;52578.53;5022939;28;20685;-72
2021/01/30 02:33:35;;;;;;;13.67;10.00;;;;;;;-144.99;100.00;52558.16;5026781;28;20633;-72
2021/01/30 02:36:14;;;;;;;14.13;11.80;;;;;;;-144.99;100.00;52554.09;5023106;28;20621;-72
2021/01/30 02:38:47;;;;;;;15.47;12.77;;;;;;;-144.99;100.00;52550.00;5027652;28;20616;-72
2021/01/30 02:41:18;;;;;;;14.97;11.30;;;;;;;-144.99;100.00;52582.63;5033325;28;20669;-72
2021/01/30 02:43:50;;;;;;;14.47;12.30;;;;;;;-144.99;100.00;52568.34;5028128;28;20621;-72
2021/01/30 02:46:20;;;;;;;19.13;13.23;;;;;;;-144.99;100.00;52586.69;5028895;28;21292;-72
2021/01/30 02:48:50;;;;;;;18.27;11.97;;;;;;;-144.99;100.00;52533.69;5027047;28;20737;-72
2021/01/30 02:51:21;;;;;;;23.93;15.23;;;;;;;-144.99;100.00;52574.47;5024181;28;20664;-73
2021/01/30 02:53:51;;;;;;;18.87;13.30;;;;;;;-144.99;100.00;52558.16;5026927;28;20851;-72
2021/01/30 02:56:20;;;;;;;20.67;14.90;;;;;;;-144.99;100.00;52576.50;5029694;28;20636;-72
2021/01/30 02:58:53;;;;;;;18.77;13.53;;;;;;;-144.99;100.00;52570.38;5029697;28;20711;-71
2021/01/30 03:01:20;;;;;;;19.60;15.33;;;;;;;-144.99;100.00;52594.84;5025942;28;20727;-72
2021/01/30 03:03:47;;;;;;;20.37;13.47;;;;;;;-144.99;100.00;52550.00;5025168;28;20639;-72
2021/01/30 03:06:20;;;;;;;20.27;15.73;;;;;;;-144.99;100.00;52517.41;5029475;28;20617;-72
2021/01/30 03:08:54;;;;;;;19.07;14.50;;;;;;;-144.99;100.00;52607.09;5027487;28;20648;-71
2021/01/30 03:11:26;;;;;;;18.37;14.43;;;;;;;-144.99;100.00;52562.25;5029192;28;20793;-72
2021/01/30 03:13:56;;;;;;;24.43;18.43;;;;;;;-144.99;100.00;52562.25;5026850;28;20662;-71
2021/01/30 03:16:27;;;;;;;19.07;14.40;;;;;;;-144.99;100.00;52533.69;5030787;28;21000;-72
2021/01/30 03:18:55;;;;;;;16.27;12.87;;;;;;;-144.99;100.00;52574.47;5027264;28;20647;-70
2021/01/30 03:21:24;;;;;;;21.80;15.97;;;;;;;-144.99;100.00;52558.16;5032348;28;20640;-71
2021/01/30 03:23:51;;;;;;;21.73;15.13;;;;;;;-144.99;100.00;52570.38;5032920;28;21182;-70
2021/01/30 03:26:20;;;;;;;22.53;16.60;;;;;;;-144.99;100.00;52586.69;5039047;28;20630;-70
2021/01/30 03:28:47;;;;;;;19.07;13.67;;;;;;;-144.99;100.00;52566.31;5031502;28;21007;-71
2021/01/30 03:31:17;;;;;;;17.37;14.10;;;;;;;-144.99;100.00;52578.53;5037482;28;20643;-73
2021/01/30 03:33:44;;;;;;;18.30;14.43;;;;;;;-144.99;100.00;52501.09;5029845;28;20644;-72
2021/01/30 03:36:10;;;;;;;19.50;13.20;;;;;;;-144.99;100.00;52578.53;5035674;28;20722;-72
2021/01/30 03:38:37;;;;;;;19.97;14.50;;;;;;;-144.99;100.00;52537.78;5031315;28;20635;-72
2021/01/30 03:41:04;;;;;;;16.50;12.30;;;;;;;-144.99;100.00;52541.84;5036571;28;20687;-72
2021/01/30 03:43:30;;;;;;;18.40;13.30;;;;;;;-144.99;100.00;52507.19;5031958;28;21225;-73
2021/01/30 03:45:56;;;;;;;16.93;13.40;;;;;;;-144.99;100.00;52586.69;5032185;28;20642;-73
2021/01/30 03:48:22;;;;;;;18.83;13.73;;;;;;;-144.99;100.00;52550.00;5031366;28;20627;-73
2021/01/30 03:50:48;;;;;;;19.70;14.50;;;;;;;-144.99;100.00;52541.84;5035895;28;21279;-74
2021/01/30 03:53:14;;;;;;;18.37;13.00;;;;;;;-144.99;100.00;52594.84;5043098;28;20633;-74
2021/01/30 03:55:42;;;;;;;17.33;13.80;;;;;;;-144.99;100.00;52574.47;5047014;28;20608;-74
2021/01/30 03:58:09;;;;;;;23.20;15.43;;;;;;;-144.99;100.00;52537.78;5048984;28;20635;-74
2021/01/30 04:00:35;;;;;;;18.33;13.70;;;;;;;-144.99;100.00;52552.03;5046135;28;20661;-75
2021/01/30 04:03:02;;;;;;;16.47;12.93;;;;;;;-144.99;100.00;52560.19;5037590;28;20629;-74
2021/01/30 04:05:29;;;;;;;17.60;13.70;;;;;;;-144.99;100.00;52562.25;5033995;28;20631;-73
2021/01/30 04:07:57;;;;;;;23.00;14.50;;;;;;;-144.99;100.00;52558.16;5036280;28;20632;-75
2021/01/30 04:10:25;;;;;;;22.40;15.70;;;;;;;-144.99;100.00;52562.25;5033169;28;21193;-75
2021/01/30 04:12:52;;;;;;;17.83;14.67;;;;;;;-144.99;100.00;52556.13;5029680;28;20636;-74
2021/01/30 04:15:22;;;;;;;18.30;14.43;;;;;;;-144.99;100.00;52578.53;5031607;28;21231;-74
2021/01/30 04:17:48;;;;;;;19.50;14.00;;;;;;;-144.99;100.00;52537.78;5036534;28;20649;-75
2021/01/30 04:20:15;;;;;;;21.03;15.30;;;;;;;-144.99;100.00;52574.47;5026445;28;20656;-75
2021/01/30 04:22:41;;;;;;;16.00;12.50;;;;;;;-144.99;100.00;52588.75;5032339;28;20628;-75
2021/01/30 04:25:08;;;;;;;17.63;13.63;;;;;;;-144.99;100.00;52598.94;5030925;28;20660;-73
2021/01/30 04:27:34;;;;;;;20.27;13.77;;;;;;;-144.99;100.00;52590.78;5034185;28;20634;-75
2021/01/30 04:30:01;;;;;;;21.47;13.17;;;;;;;-144.99;100.00;52574.47;5029001;28;21086;-75
2021/01/30 04:32:27;;;;;;;19.50;12.37;;;;;;;-144.99;100.00;52572.44;5031095;28;20672;-74
2021/01/30 04:34:53;;;;;;;17.40;13.60;;;;;;;-144.99;100.00;52588.75;5029945;28;20632;-74
2021/01/30 04:37:19;;;;;;;16.23;12.43;;;;;;;-144.99;100.00;52586.69;5030586;28;20633;-74
2021/01/30 04:39:45;;;;;;;17.23;12.33;;;;;;;-144.99;100.00;52574.47;5037348;28;20717;-74
2021/01/30 04:42:16;;;;;;;19.17;13.67;;;;;;;-144.99;100.00;52564.28;5030748;28;20664;-74
2021/01/30 04:44:49;;;;;;;13.50;9.73;;;;;;;-144.99;100.00;52574.47;5031848;28;20780;-74
2021/01/30 04:47:35;;;;;;;15.70;12.30;;;;;;;-144.99;100.00;52578.53;5028539;28;20636;-74
2021/01/30 04:50:07;;;;;;;16.43;10.43;;;;;;;-144.99;100.00;52615.25;5027752;28;20654;-72
2021/01/30 04:52:47;;;;;;;12.67;9.73;;;;;;;-144.99;100.00;52607.09;5048730;22;21065;-82
2021/01/30 04:55:32;;;;;;;13.57;9.23;;;;;;;-144.99;100.00;52586.69;5021498;28;20720;-81
2021/01/30 04:58:10;;;;;;;13.83;10.80;;;;;;;-144.99;100.00;52594.84;5021143;28;20608;-80
2021/01/30 05:00:47;;;;;;;13.13;10.30;;;;;;;-144.99;100.00;52623.38;5030229;28;20759;-80
2021/01/30 05:03:28;;;;;;;15.40;10.77;;;;;;;-144.99;100.00;52550.00;5035035;28;21093;-80
2021/01/30 05:06:01;;;;;;;9.50;8.13;;;;;;;-144.99;100.00;52590.78;5033261;28;20625;-81
2021/01/30 05:08:35;;;;;;;12.40;10.23;;;;;;;-144.99;100.00;52560.19;5034433;28;20643;-80
2021/01/30 05:11:05;;;;;;;13.67;9.80;;;;;;;-144.99;100.00;52541.84;5031706;28;20677;-80
2021/01/30 05:13:37;;;;;;;14.60;9.97;;;;;;;-144.99;100.00;52603.00;5031934;28;20697;-79
2021/01/30 05:16:08;;;;;;;15.63;9.70;;;;;;;-144.99;100.00;52594.84;5034576;28;20669;-79
2021/01/30 05:18:40;;;;;;;12.57;9.10;;;;;;;-144.99;100.00;52578.53;5030842;28;20920;-79
2021/01/30 05:21:13;;;;;;;11.63;9.00;;;;;;;-144.99;100.00;52566.31;5033984;28;20641;-80
2021/01/30 05:23:42;;;;;;;13.97;9.80;;;;;;;-144.99;100.00;52619.31;5030147;28;20639;-80
2021/01/30 05:26:23;;;;;;;12.47;8.37;;;;;;;-144.99;100.00;52574.47;5025376;28;20629;-81
2021/01/30 05:28:59;;;;;;;12.50;9.57;;;;;;;-144.99;100.00;52582.63;5031761;28;20638;-79
2021/01/30 05:31:34;;;;;;;14.37;9.30;;;;;;;-144.99;100.00;52621.34;5031417;28;20802;-81
2021/01/30 05:34:13;;;;;;;11.33;8.23;;;;;;;-144.99;100.00;52605.03;5036121;28;20892;-80
2021/01/30 05:36:46;;;;;;;16.57;10.53;;;;;;;-144.99;100.00;52558.16;5034527;28;21122;-82
2021/01/30 05:39:35;;;;;;;12.03;8.07;;;;;;;-144.99;100.00;52570.38;5032151;28;20985;-81
2021/01/30 05:42:08;;;;;;;12.87;8.73;;;;;;;-144.99;100.00;52594.84;5036089;28;21275;-82
2021/01/30 05:44:48;;;;;;;10.90;8.33;;;;;;;-144.99;100.00;52603.00;5033298;28;21074;-82
2021/01/30 05:47:18;;;;;;;11.93;8.70;;;;;;;-144.99;100.00;52623.38;5029443;28;21008;-78
2021/01/30 05:49:55;;;;;;;14.07;8.90;;;;;;;-144.99;100.00;52590.78;5036663;28;20609;-78
2021/01/30 05:52:26;;;;;;;11.60;8.83;;;;;;;-144.99;100.00;52586.69;5027830;28;20666;-80
2021/01/30 05:54:52;;;;;;;12.87;8.40;;;;;;;-144.99;100.00;52554.09;5028073;28;20629;-77
2021/01/30 05:57:19;;;;;;;11.93;8.80;;;;;;;-144.99;100.00;52586.69;5031096;28;21042;-79
2021/01/30 05:59:49;;;;;;;10.53;8.67;;;;;;;-144.99;100.00;52584.66;5030186;28;20670;-78
2021/01/30 06:02:18;;;;;;;13.73;8.60;;;;;;;-144.99;100.00;52607.09;5034220;28;20672;-78
2021/01/30 06:04:44;;;;;;;11.67;8.67;;;;;;;-144.99;100.00;52582.63;5029581;28;20720;-79
2021/01/30 06:07:28;;;;;;;12.50;8.53;;;;;;;-144.99;100.00;52594.84;5029138;28;20640;-78
2021/01/30 06:09:54;;;;;;;12.10;8.83;;;;;;;-144.99;100.00;52592.81;5029749;28;20650;-79
2021/01/30 06:12:24;;;;;;;12.77;9.27;;;;;;;-144.99;100.00;52574.47;5038233;28;21004;-78
2021/01/30 06:14:51;;;;;;;13.83;10.07;;;;;;;-144.99;100.00;52623.38;5030676;28;20633;-81
2021/01/30 06:17:30;;;;;;;12.93;9.43;;;;;;;-144.99;100.00;52600.97;5028701;28;21000;-78
2021/01/30 06:20:04;;;;;;;13.77;10.03;;;;;;;-144.99;100.00;52566.31;5031990;28;20652;-79
2021/01/30 06:22:31;;;;;;;13.83;8.43;;;;;;;-144.99;100.00;52590.78;5027418;28;20663;-78
2021/01/30 06:24:57;;;;;;;13.73;9.97;;;;;;;-144.99;100.00;52598.94;5027878;28;20720;-76
2021/01/30 06:27:34;;;;;;;12.00;8.27;;;;;;;-144.99;100.00;52545.94;5039364;28;20621;-75
2021/01/30 06:30:03;;;;;;;11.23;9.07;;;;;;;-144.99;100.00;52562.25;5027275;28;20621;-74
2021/01/30 06:32:36;;;;;;;10.80;8.43;;;;;;;-144.99;100.00;52554.09;5035106;28;20660;-74
2021/01/30 06:35:20;;;;;;;12.73;8.17;;;;;;;-144.99;100.00;52566.31;5029189;28;20640;-76
2021/01/30 06:37:50;;;;;;;13.40;8.90;;;;;;;-144.99;100.00;52566.31;5028448;28;20640;-74
2021/01/30 06:40:23;;;;;;;13.43;9.13;;;;;;;-144.99;100.00;52562.25;5031363;28;20652;-73
2021/01/30 06:42:52;;;;;;;9.93;8.17;;;;;;;-144.99;100.00;52592.81;5032412;28;20657;-73
2021/01/30 06:45:27;;;;;;;8.93;7.20;;;;;;;-144.99;100.00;52586.69;5028264;28;20674;-75
2021/01/30 06:47:53;;;;;;;10.20;8.07;;;;;;;-144.99;100.00;52623.38;5027210;28;20715;-74
2021/01/30 06:50:29;;;;;;;13.53;8.63;;;;;;;-144.99;100.00;52570.38;5025364;28;20997;-76
2021/01/30 06:53:13;;;;;;;9.87;7.13;;;;;;;-144.99;100.00;52582.63;5024921;28;20662;-77
2021/01/30 06:55:39;;;;;;;12.33;7.97;;;;;;;-144.99;100.00;52627.47;5036879;28;20663;-74
2021/01/30 06:58:06;;;;;;;9.73;6.27;;;;;;;-144.99;100.00;52578.53;5028291;28;20636;-73
2021/01/30 07:00:35;;;;;;;9.50;7.90;;;;;;;-144.99;100.00;52550.00;5030013;28;21047;-73
2021/01/30 07:03:12;;;;;;;9.47;7.43;;;;;;;-144.99;100.00;52590.78;5035275;28;20743;-72
2021/01/30 07:05:49;;;;;;;10.93;8.67;;;;;;;-144.99;100.00;52580.59;5027066;28;20624;-73
2021/01/30 07:08:39;;;;;;;11.43;7.97;;;;;;;-144.99;100.00;52574.47;5028030;28;20632;-73
2021/01/30 07:11:23;;;;;;;10.07;7.23;;;;;;;-144.99;100.00;52590.78;5029040;28;20631;-74
2021/01/30 07:14:01;;;;;;;12.10;7.90;;;;;;;-144.99;100.00;52550.00;5027397;28;21225;-75
2021/01/30 07:16:37;;;;;;;9.57;7.43;;;;;;;-144.99;100.00;52550.00;5033088;28;20626;-73
2021/01/30 07:19:15;;;;;;;10.23;7.27;;;;;;;-144.99;100.00;52594.84;5028207;28;20687;-74
2021/01/30 07:21:45;;;;;;;13.53;8.93;;;;;;;-144.99;100.00;52537.78;5033327;28;20672;-74
2021/01/30 07:24:19;;;;;;;10.03;6.53;;;;;;;-144.99;100.00;52615.25;5032476;28;21044;-74
2021/01/30 07:26:52;;;;;;;10.63;7.30;;;;;;;-144.99;100.00;52574.47;5033677;28;20628;-73
2021/01/30 07:29:32;;;;;;;9.50;7.33;;;;;;;-144.99;100.00;52574.47;5034828;28;20782;-74
2021/01/30 07:32:05;;;;;;;11.97;8.03;;;;;;;-144.99;100.00;52570.38;5031006;28;21474;-73
2021/01/30 07:34:37;;;;;;;9.20;7.00;;;;;;;-144.99;100.00;52590.78;5032641;28;20627;-75
2021/01/30 07:37:13;;;;;;;9.47;6.87;;;;;;;-144.99;100.00;52570.38;5034176;28;20613;-75
2021/01/30 07:39:44;;;;;;;10.37;6.93;;;;;;;-144.99;100.00;52592.81;5035098;28;20613;-75
2021/01/30 07:42:15;;;;;;;11.93;7.70;;;;;;;-144.99;100.00;52590.78;5031180;28;20656;-74
2021/01/30 07:44:51;;;;;;;10.73;7.30;;;;;;;-144.99;100.00;52564.28;5041221;28;21044;-75
2021/01/30 07:47:24;;;;;;;11.83;8.50;;;;;;;-144.99;100.00;52572.44;5034357;28;20610;-76
2021/01/30 07:49:56;;;;;;;9.30;6.60;;;;;;;-144.99;100.00;52594.84;5037942;28;20615;-76
2021/01/30 07:52:26;;;;;;;9.80;6.60;;;;;;;-144.99;100.00;52560.19;5039975;28;20660;-77
2021/01/30 07:54:55;;;;;;;8.80;6.63;;;;;;;-144.99;100.00;52537.78;5027284;28;21272;-76
2021/01/30 07:57:56;;;;;;;9.90;7.47;;;;;;;-144.99;100.00;52550.00;5037110;28;20612;-76
2021/01/30 08:00:32;;;;;;;9.83;6.40;;;;;;;-144.99;100.00;52578.53;5007314;28;21228;-74
2021/01/30 08:03:16;;;;;;;13.57;8.70;;;;;;;-144.99;100.00;52525.56;5030564;28;21065;-75
2021/01/30 08:05:52;;;;;;;11.37;7.20;;;;;;;-144.99;100.00;52570.38;5046983;28;20620;-75
2021/01/30 08:08:26;;;;;;;9.57;6.50;;;;;;;-144.99;100.00;52574.47;5035289;28;21010;-75
2021/01/30 08:10:59;;;;;;;14.63;6.77;;;;;;;-144.99;100.00;52554.09;5041786;28;21059;-75
2021/01/30 08:13:38;;;;;;;11.97;7.90;;;;;;;-144.99;100.00;52558.16;5037992;28;20822;-75
2021/01/30 08:16:15;;;;;;;9.60;6.60;;;;;;;-144.99;100.00;52550.00;5042300;28;20635;-75
2021/01/30 08:18:43;;;;;;;10.87;7.73;;;;;;;-144.99;100.00;52537.78;5038089;28;20719;-75
2021/01/30 08:21:28;;;;;;;10.77;7.17;;;;;;;-144.99;100.00;52554.09;5038370;28;21328;-73
2021/01/30 08:24:01;;;;;;;9.03;6.37;;;;;;;-144.99;100.00;52547.97;5031180;28;20633;-76
2021/01/30 08:26:33;;;;;;;9.33;7.60;;;;;;;-144.99;100.00;52550.00;5044519;28;20723;-78
2021/01/30 08:29:10;;;;;;;9.37;6.97;;;;;;;-144.99;98.44;52513.31;5042007;28;20629;-77
2021/01/30 08:31:39;;;;;;;9.90;7.00;;;;;;;-144.99;97.66;52570.38;5039803;28;20651;-76
2021/01/30 08:34:25;;;;;;;10.13;7.13;;;;;;;-144.99;96.70;52578.53;5040253;28;20620;-75
2021/01/30 08:36:53;;;;;;;7.63;5.90;;;;;;;-144.99;94.61;52562.25;5033885;28;21223;-75
2021/01/30 08:39:24;;;;;;;11.63;7.23;;;;;;;-144.99;94.48;52513.31;5041922;28;20637;-75
2021/01/30 08:41:54;;;;;;;9.20;5.77;;;;;;;-144.99;94.03;52596.88;5038899;28;20760;-76
2021/01/30 08:44:32;;;;;;;15.77;8.07;;;;;;;-144.99;93.06;52578.53;5041828;28;20735;-75
2021/01/30 08:47:13;;;;;;;15.30;10.50;;;;;;;-144.99;92.07;52562.25;5035914;28;20611;-76
2021/01/30 08:49:40;;;;;;;9.93;7.70;;;;;;;-144.99;92.05;52507.19;5039343;28;20659;-75
2021/01/30 08:52:22;;;;;;;10.47;6.90;;;;;;;-144.99;91.75;52586.69;5043920;28;20646;-76
2021/01/30 08:54:49;;;;;;;9.00;6.37;;;;;;;-144.99;91.53;52537.78;5041658;28;21662;-76
2021/01/30 08:57:42;;;;;;;10.10;7.13;;;;;;;-144.99;91.00;52541.84;5046307;28;20631;-77
2021/01/30 09:00:12;;;;;;;7.90;6.23;;;;;;;-144.99;91.07;52541.84;5033153;28;21307;-75
2021/01/30 09:02:50;;;;;;;10.20;6.83;;;;;;;-144.99;90.51;52529.63;5044749;28;20667;-75
2021/01/30 09:05:46;;;;;;;11.67;6.77;;;;;;;-144.99;89.81;52550.00;5038238;28;20636;-74
2021/01/30 09:08:51;;;;;;;7.83;5.47;;;;;;;-144.99;89.50;52554.09;4990904;28;21007;-76
2021/01/30 09:11:39;;;;;;;13.67;8.40;;;;;;;-144.99;89.04;52484.78;5039275;28;21228;-77
2021/01/30 09:14:10;;;;;;;8.40;5.97;;;;;;;-144.99;88.16;52550.00;5040522;28;20624;-75
2021/01/30 09:16:46;;;;;;;8.30;6.20;;;;;;;-144.99;87.44;52588.75;5040285;28;20974;-74
2021/01/30 09:19:24;;;;;;;10.93;7.23;;;;;;;-144.99;86.82;52533.69;5037769;28;21266;-75
2021/01/30 09:22:02;;;;;;;8.67;7.03;;;;;;;-144.99;86.50;52545.94;5034213;28;21286;-76
2021/01/30 09:24:56;;;;;;;7.83;5.53;;;;;;;-144.99;85.92;52556.13;5034016;28;20654;-77
2021/01/30 09:27:26;;;;;;;7.40;6.03;;;;;;;-144.99;84.22;52497.00;5034508;28;20649;-77
2021/01/30 09:29:54;;;;;;;8.43;6.43;;;;;;;-144.99;83.08;52558.16;5028667;28;21028;-77
2021/01/30 09:32:27;;;;;;;8.37;5.97;;;;;;;-144.99;81.65;52533.69;5038994;28;20671;-77
2021/01/30 09:34:56;;;;;;;8.30;6.77;;;;;;;-144.99;79.69;52497.00;5032781;28;21157;-76
2021/01/30 09:37:36;;;;;;;7.70;6.10;;;;;;;-144.99;77.78;52507.19;5037544;28;20609;-76
2021/01/30 09:40:05;;;;;;;9.73;7.17;;;;;;;-144.99;76.63;52472.56;5032531;28;21205;-77
2021/01/30 09:42:31;;;;;;;8.70;6.03;;;;;;;-144.99;75.62;52501.09;5035016;28;20645;-77
2021/01/30 09:45:05;;;;;;;9.60;6.77;;;;;;;-144.99;74.37;52554.09;5042732;28;20949;-76
2021/01/30 09:47:33;;;;;;;8.73;6.67;;;;;;;-144.99;74.36;52519.44;5037797;28;20623;-75
2021/01/30 09:50:04;;;;;;;8.80;5.70;;;;;;;-144.99;73.50;52484.78;5038216;28;21189;-77
2021/01/30 09:52:30;;;;;;;8.40;6.10;;;;;;;-144.99;72.86;52490.91;5030989;28;20654;-74
2021/01/30 09:55:09;;;;;;;9.70;6.77;;;;;;;-144.99;71.21;52492.94;5040751;28;20616;-75
2021/01/30 09:57:37;;;;;;;9.03;6.60;;;;;;;-144.99;70.09;52501.09;5044272;28;20608;-76
2021/01/30 10:00:07;;;;;;;11.37;6.50;;;;;;;-144.99;68.07;52484.78;5036304;28;20661;-74
2021/01/30 10:02:33;;;;;;;8.57;6.07;;;;;;;-144.99;67.05;52476.63;5040303;28;21237;-78
2021/01/30 10:05:07;;;;;;;7.27;6.43;;;;;;;-144.99;65.59;52472.56;5044005;28;20777;-75
2021/01/30 10:07:33;;;;;;;7.47;5.40;;;;;;;-144.99;63.10;52468.47;5036972;28;20654;-76
2021/01/30 10:10:00;;;;;;;8.33;5.23;;;;;;;-144.99;61.18;52435.88;5036123;28;20207;-78
2021/01/30 10:12:27;;;;;;;7.17;5.60;;;;;;;-144.99;60.12;52466.44;5039681;28;21007;-74
2021/01/30 10:14:55;;;;;;;7.80;5.30;;;;;;;-144.99;58.47;52452.16;5031627;28;20247;-75
2021/01/30 10:17:31;;;;;;;6.70;5.57;;;;;;;-144.99;56.39;52452.16;5032401;28;20225;-76
2021/01/30 10:19:59;;;;;;;7.90;5.40;;;;;;;-144.99;54.29;52439.94;5035373;28;20605;-76
2021/01/30 10:22:35;;;;;;;7.67;5.00;;;;;;;-144.99;53.01;52415.47;5030060;28;20222;-77
2021/01/30 10:25:05;;;;;;;6.23;5.03;;;;;;;-144.99;51.19;52407.31;5031019;28;20202;-77
2021/01/30 10:27:32;;;;;;;8.10;6.10;;;;;;;-144.99;50.14;52407.31;5040797;28;20202;-77
2021/01/30 10:29:59;;;;;;;7.80;5.63;;;;;;;-144.99;48.45;52354.34;5032028;28;20718;-77
2021/01/30 10:32:36;;;;;;;8.20;6.13;;;;;;;-144.99;47.39;52333.94;5036909;28;20222;-76
2021/01/30 10:35:06;;;;;;;6.30;5.00;;;;;;;-144.99;46.15;52303.38;5041274;28;20209;-77
2021/01/30 10:37:40;;;;;;;7.07;4.77;;;;;;;-144.99;44.79;52305.41;5034959;28;20194;-76
2021/01/30 10:40:11;;;;;;;6.87;5.37;;;;;;;-144.99;43.08;52256.50;5035794;28;20231;-77
2021/01/30 10:42:39;;;;;;;6.40;4.53;;;;;;;-144.99;41.83;52256.50;5032975;28;20228;-75
2021/01/30 10:45:17;;;;;;;9.30;5.30;;;;;;;-144.99;40.61;52248.34;5039355;28;20198;-76
2021/01/30 10:47:46;;;;;;;8.00;5.10;;;;;;;-144.99;39.81;52278.91;5038191;28;20243;-75
2021/01/30 10:50:16;;;;;;;8.07;5.37;;;;;;;-144.99;39.13;52207.59;5033681;28;20727;-76
2021/01/30 10:52:42;;;;;;;9.80;5.63;;;;;;;-144.99;38.64;52230.00;5042420;28;20312;-76
2021/01/30 10:55:30;;;;;;;6.70;5.03;;;;;;;-144.99;37.89;52219.81;5077028;22;20229;-75
2021/01/30 10:58:12;;;;;;;10.00;5.97;;;;;;;-144.99;37.49;52223.88;5042345;28;20313;-76
2021/01/30 11:00:39;;;;;;;9.97;6.33;;;;;;;-144.99;36.75;52232.03;5045273;28;20727;-75
2021/01/30 11:03:20;;;;;;;8.90;5.67;;;;;;;-144.99;35.99;52219.81;5050519;28;20273;-76
2021/01/30 11:05:46;;;;;;;7.50;5.83;;;;;;;-144.99;35.27;52236.13;5030992;28;20198;-76
2021/01/30 11:08:29;;;;;;;8.87;6.13;;;;;;;-144.99;35.03;52242.22;5024998;28;20416;-74
2021/01/30 11:11:04;;;;;;;6.83;5.67;;;;;;;-144.99;34.63;52179.06;5019739;28;20275;-76
2021/01/30 11:13:34;;;;;;;7.67;5.90;;;;;;;-144.99;34.22;52191.28;5020118;28;20194;-75
2021/01/30 11:16:17;;;;;;;6.47;5.03;;;;;;;-144.99;34.11;52240.19;5023010;28;20194;-75
2021/01/30 11:18:47;;;;;;;6.87;5.60;;;;;;;-144.99;33.67;52211.66;5023148;28;20217;-75
2021/01/30 11:21:26;;;;;;;6.97;5.13;;;;;;;-144.99;33.55;52223.88;5020834;28;20238;-75
2021/01/30 11:23:53;;;;;;;8.13;4.80;;;;;;;-144.99;33.70;52252.44;5020803;28;20252;-75
2021/01/30 11:26:34;;;;;;;6.50;5.17;;;;;;;-144.99;32.96;52236.13;5018013;28;20637;-75